sensor_id;sensor_type;location;lat;lon;timestamp;temperature;humidity
62573;DHT22;48626;51.678;5.806;2023-05-10T00:02:07;14.90;99.90
62573;DHT22;48626;51.678;5.806;2023-05-10T00:04:32;14.90;99.90
62573;DHT22;48626;51.678;5.806;2023-05-10T00:06:58;14.80;99.90
62573;DHT22;48626;51.678;5.806;2023-05-10T00:09:24;14.80;99.90
62573;DHT22;48626;51.678;5.806;2023-05-10T00:11:50;14.90;99.90
62573;DHT22;48626;51.678;5.806;2023-05-10T00:14:16;14.80;99.90
62573;DHT22;48626;51.678;5.806;2023-05-10T00:16:42;14.80;99.90
62573;DHT22;48626;51.678;5.806;2023-05-10T00:19:07;14.80;99.90
62573;DHT22;48626;51.678;5.806;2023-05-10T00:21:33;14.80;99.90
62573;DHT22;48626;51.678;5.806;2023-05-10T00:23:59;14.80;99.90
62573;DHT22;48626;51.678;5.806;2023-05-10T00:26:25;14.90;99.90
62573;DHT22;48626;51.678;5.806;2023-05-10T00:28:51;14.90;99.90
62573;DHT22;48626;51.678;5.806;2023-05-10T00:31:17;14.90;99.90
62573;DHT22;48626;51.678;5.806;2023-05-10T00:33:42;14.90;99.90
62573;DHT22;48626;51.678;5.806;2023-05-10T00:36:08;14.90;99.90
62573;DHT22;48626;51.678;5.806;2023-05-10T00:38:34;14.90;99.90
62573;DHT22;48626;51.678;5.806;2023-05-10T00:41:00;14.90;99.90
62573;DHT22;48626;51.678;5.806;2023-05-10T00:43:25;14.90;99.90
62573;DHT22;48626;51.678;5.806;2023-05-10T00:45:51;15.00;99.90
62573;DHT22;48626;51.678;5.806;2023-05-10T00:48:18;15.00;99.90
62573;DHT22;48626;51.678;5.806;2023-05-10T00:50:44;15.00;99.90
62573;DHT22;48626;51.678;5.806;2023-05-10T00:53:10;14.90;99.90
62573;DHT22;48626;51.678;5.806;2023-05-10T00:55:36;14.90;99.90
62573;DHT22;48626;51.678;5.806;2023-05-10T00:58:03;14.90;99.90
62573;DHT22;48626;51.678;5.806;2023-05-10T01:00:28;14.90;99.90
62573;DHT22;48626;51.678;5.806;2023-05-10T01:02:55;14.90;99.90
62573;DHT22;48626;51.678;5.806;2023-05-10T01:05:20;14.90;99.90
62573;DHT22;48626;51.678;5.806;2023-05-10T01:12:59;14.80;99.90
62573;DHT22;48626;51.678;5.806;2023-05-10T01:15:25;14.80;99.90
62573;DHT22;48626;51.678;5.806;2023-05-10T01:17:51;14.70;99.90
62573;DHT22;48626;51.678;5.806;2023-05-10T01:20:17;14.70;99.90
62573;DHT22;48626;51.678;5.806;2023-05-10T01:26:17;14.70;99.90
62573;DHT22;48626;51.678;5.806;2023-05-10T01:31:18;14.70;99.90
62573;DHT22;48626;51.678;5.806;2023-05-10T01:33:54;14.70;99.90
62573;DHT22;48626;51.678;5.806;2023-05-10T01:36:31;14.70;99.90
62573;DHT22;48626;51.678;5.806;2023-05-10T01:39:10;14.70;99.90
62573;DHT22;48626;51.678;5.806;2023-05-10T01:46:36;14.70;99.90
62573;DHT22;48626;51.678;5.806;2023-05-10T01:49:06;14.70;99.90
62573;DHT22;48626;51.678;5.806;2023-05-10T01:51:47;14.60;99.90
62573;DHT22;48626;51.678;5.806;2023-05-10T01:54:17;14.60;99.90
62573;DHT22;48626;51.678;5.806;2023-05-10T01:56:46;14.60;99.90
62573;DHT22;48626;51.678;5.806;2023-05-10T01:59:16;14.50;99.90
62573;DHT22;48626;51.678;5.806;2023-05-10T02:01:43;14.50;99.90
62573;DHT22;48626;51.678;5.806;2023-05-10T02:04:11;14.50;99.90
62573;DHT22;48626;51.678;5.806;2023-05-10T02:06:39;14.40;99.90
62573;DHT22;48626;51.678;5.806;2023-05-10T02:09:06;14.40;99.90
62573;DHT22;48626;51.678;5.806;2023-05-10T02:11:33;14.40;99.90
62573;DHT22;48626;51.678;5.806;2023-05-10T02:14:00;14.40;99.90
62573;DHT22;48626;51.678;5.806;2023-05-10T02:16:27;14.40;99.90
62573;DHT22;48626;51.678;5.806;2023-05-10T02:18:57;14.40;99.90
62573;DHT22;48626;51.678;5.806;2023-05-10T02:21:24;14.40;99.90
62573;DHT22;48626;51.678;5.806;2023-05-10T02:23:52;14.40;99.90
62573;DHT22;48626;51.678;5.806;2023-05-10T02:26:18;14.30;99.90
62573;DHT22;48626;51.678;5.806;2023-05-10T02:28:46;14.30;99.90
62573;DHT22;48626;51.678;5.806;2023-05-10T02:31:14;14.40;99.90
62573;DHT22;48626;51.678;5.806;2023-05-10T02:33:41;14.40;99.90
62573;DHT22;48626;51.678;5.806;2023-05-10T02:36:08;14.50;99.90
62573;DHT22;48626;51.678;5.806;2023-05-10T02:38:36;14.50;99.90
62573;DHT22;48626;51.678;5.806;2023-05-10T02:41:04;14.50;99.90
62573;DHT22;48626;51.678;5.806;2023-05-10T02:43:32;14.50;99.90
62573;DHT22;48626;51.678;5.806;2023-05-10T02:45:58;14.50;99.90
62573;DHT22;48626;51.678;5.806;2023-05-10T02:48:24;14.40;99.90
62573;DHT22;48626;51.678;5.806;2023-05-10T02:50:52;14.40;99.90
62573;DHT22;48626;51.678;5.806;2023-05-10T02:53:26;14.40;99.90
62573;DHT22;48626;51.678;5.806;2023-05-10T02:55:58;14.40;99.90
62573;DHT22;48626;51.678;5.806;2023-05-10T02:58:24;14.40;99.90
62573;DHT22;48626;51.678;5.806;2023-05-10T03:00:50;14.40;99.90
62573;DHT22;48626;51.678;5.806;2023-05-10T03:03:16;14.40;99.90
62573;DHT22;48626;51.678;5.806;2023-05-10T03:05:42;14.40;99.90
62573;DHT22;48626;51.678;5.806;2023-05-10T03:08:07;14.50;99.90
62573;DHT22;48626;51.678;5.806;2023-05-10T03:10:41;14.50;99.90
62573;DHT22;48626;51.678;5.806;2023-05-10T03:13:12;14.50;99.90
62573;DHT22;48626;51.678;5.806;2023-05-10T03:18:18;14.50;99.90
62573;DHT22;48626;51.678;5.806;2023-05-10T03:20:48;14.60;99.90
62573;DHT22;48626;51.678;5.806;2023-05-10T03:25:44;14.60;99.90
62573;DHT22;48626;51.678;5.806;2023-05-10T03:28:12;14.60;99.90
62573;DHT22;48626;51.678;5.806;2023-05-10T03:30:41;14.60;99.90
62573;DHT22;48626;51.678;5.806;2023-05-10T03:33:07;14.60;99.90
62573;DHT22;48626;51.678;5.806;2023-05-10T03:35:33;14.60;99.90
62573;DHT22;48626;51.678;5.806;2023-05-10T03:37:59;14.60;99.90
62573;DHT22;48626;51.678;5.806;2023-05-10T03:40:26;14.60;99.90
62573;DHT22;48626;51.678;5.806;2023-05-10T03:42:54;14.60;99.90
62573;DHT22;48626;51.678;5.806;2023-05-10T03:45:20;14.60;99.90
62573;DHT22;48626;51.678;5.806;2023-05-10T03:47:46;14.60;99.90
62573;DHT22;48626;51.678;5.806;2023-05-10T03:50:12;14.60;99.90
62573;DHT22;48626;51.678;5.806;2023-05-10T03:52:37;14.60;99.90
62573;DHT22;48626;51.678;5.806;2023-05-10T03:55:05;14.60;99.90
62573;DHT22;48626;51.678;5.806;2023-05-10T03:57:30;14.60;99.90
62573;DHT22;48626;51.678;5.806;2023-05-10T03:59:56;14.60;99.90
62573;DHT22;48626;51.678;5.806;2023-05-10T04:02:22;14.60;99.90
62573;DHT22;48626;51.678;5.806;2023-05-10T04:04:47;14.70;99.90
62573;DHT22;48626;51.678;5.806;2023-05-10T04:07:13;14.70;99.90
62573;DHT22;48626;51.678;5.806;2023-05-10T04:09:39;14.70;99.90
62573;DHT22;48626;51.678;5.806;2023-05-10T04:12:05;14.70;99.90
62573;DHT22;48626;51.678;5.806;2023-05-10T04:14:31;14.70;99.90
62573;DHT22;48626;51.678;5.806;2023-05-10T04:16:57;14.70;99.90
62573;DHT22;48626;51.678;5.806;2023-05-10T04:19:23;14.70;99.90
62573;DHT22;48626;51.678;5.806;2023-05-10T04:21:48;14.60;99.90
62573;DHT22;48626;51.678;5.806;2023-05-10T04:24:14;14.60;99.90
62573;DHT22;48626;51.678;5.806;2023-05-10T04:26:40;14.60;99.90
62573;DHT22;48626;51.678;5.806;2023-05-10T04:29:05;14.70;99.90
62573;DHT22;48626;51.678;5.806;2023-05-10T04:31:31;14.60;99.90
62573;DHT22;48626;51.678;5.806;2023-05-10T04:33:57;14.60;99.90
62573;DHT22;48626;51.678;5.806;2023-05-10T04:36:22;14.60;99.90
62573;DHT22;48626;51.678;5.806;2023-05-10T04:38:48;14.60;99.90
62573;DHT22;48626;51.678;5.806;2023-05-10T04:41:14;14.60;99.90
62573;DHT22;48626;51.678;5.806;2023-05-10T04:43:39;14.60;99.90
62573;DHT22;48626;51.678;5.806;2023-05-10T04:46:06;14.60;99.90
62573;DHT22;48626;51.678;5.806;2023-05-10T04:48:32;14.60;99.90
62573;DHT22;48626;51.678;5.806;2023-05-10T04:50:58;14.70;99.90
62573;DHT22;48626;51.678;5.806;2023-05-10T04:53:24;14.60;99.90
62573;DHT22;48626;51.678;5.806;2023-05-10T04:55:50;14.60;99.90
62573;DHT22;48626;51.678;5.806;2023-05-10T04:58:15;14.60;99.90
62573;DHT22;48626;51.678;5.806;2023-05-10T05:00:41;14.60;99.90
62573;DHT22;48626;51.678;5.806;2023-05-10T05:03:07;14.60;99.90
62573;DHT22;48626;51.678;5.806;2023-05-10T05:05:33;14.60;99.90
62573;DHT22;48626;51.678;5.806;2023-05-10T05:07:59;14.60;99.90
62573;DHT22;48626;51.678;5.806;2023-05-10T05:10:24;14.60;99.90
62573;DHT22;48626;51.678;5.806;2023-05-10T05:12:50;14.60;99.90
62573;DHT22;48626;51.678;5.806;2023-05-10T05:15:16;14.70;99.90
62573;DHT22;48626;51.678;5.806;2023-05-10T05:17:43;14.70;99.90
62573;DHT22;48626;51.678;5.806;2023-05-10T05:20:09;14.70;99.90
62573;DHT22;48626;51.678;5.806;2023-05-10T05:22:36;14.70;99.90
62573;DHT22;48626;51.678;5.806;2023-05-10T05:25:02;14.70;99.90
62573;DHT22;48626;51.678;5.806;2023-05-10T05:27:28;14.60;99.90
62573;DHT22;48626;51.678;5.806;2023-05-10T05:29:55;14.60;99.90
62573;DHT22;48626;51.678;5.806;2023-05-10T05:32:21;14.60;99.90
62573;DHT22;48626;51.678;5.806;2023-05-10T05:34:47;14.60;99.90
62573;DHT22;48626;51.678;5.806;2023-05-10T05:37:16;14.60;99.90
62573;DHT22;48626;51.678;5.806;2023-05-10T05:39:43;14.60;99.90
62573;DHT22;48626;51.678;5.806;2023-05-10T05:42:12;14.60;99.90
62573;DHT22;48626;51.678;5.806;2023-05-10T05:44:39;14.50;99.90
62573;DHT22;48626;51.678;5.806;2023-05-10T05:47:05;14.50;99.90
62573;DHT22;48626;51.678;5.806;2023-05-10T05:49:31;14.50;99.90
62573;DHT22;48626;51.678;5.806;2023-05-10T05:52:00;14.50;99.90
62573;DHT22;48626;51.678;5.806;2023-05-10T05:54:27;14.50;99.90
62573;DHT22;48626;51.678;5.806;2023-05-10T05:56:59;14.50;99.90
62573;DHT22;48626;51.678;5.806;2023-05-10T05:59:25;14.50;99.90
62573;DHT22;48626;51.678;5.806;2023-05-10T06:01:51;14.60;99.90
62573;DHT22;48626;51.678;5.806;2023-05-10T06:04:18;14.60;99.90
62573;DHT22;48626;51.678;5.806;2023-05-10T06:06:43;14.60;99.90
62573;DHT22;48626;51.678;5.806;2023-05-10T06:09:10;14.60;99.90
62573;DHT22;48626;51.678;5.806;2023-05-10T06:11:36;14.60;99.90
62573;DHT22;48626;51.678;5.806;2023-05-10T06:14:02;14.70;99.90
62573;DHT22;48626;51.678;5.806;2023-05-10T06:16:30;14.80;99.90
62573;DHT22;48626;51.678;5.806;2023-05-10T06:18:56;14.90;99.90
62573;DHT22;48626;51.678;5.806;2023-05-10T06:21:21;15.00;99.90
62573;DHT22;48626;51.678;5.806;2023-05-10T06:23:47;15.00;99.90
62573;DHT22;48626;51.678;5.806;2023-05-10T06:26:13;15.10;99.90
62573;DHT22;48626;51.678;5.806;2023-05-10T06:28:39;15.10;99.90
62573;DHT22;48626;51.678;5.806;2023-05-10T06:31:06;15.20;99.90
62573;DHT22;48626;51.678;5.806;2023-05-10T06:33:32;15.30;99.90
62573;DHT22;48626;51.678;5.806;2023-05-10T06:35:58;15.40;99.90
62573;DHT22;48626;51.678;5.806;2023-05-10T06:38:23;15.50;99.90
62573;DHT22;48626;51.678;5.806;2023-05-10T06:40:49;15.60;99.90
62573;DHT22;48626;51.678;5.806;2023-05-10T06:43:16;15.60;99.90
62573;DHT22;48626;51.678;5.806;2023-05-10T06:45:41;15.60;99.90
62573;DHT22;48626;51.678;5.806;2023-05-10T06:48:07;15.50;99.90
62573;DHT22;48626;51.678;5.806;2023-05-10T06:50:33;15.50;99.90
62573;DHT22;48626;51.678;5.806;2023-05-10T06:53:00;15.40;99.90
62573;DHT22;48626;51.678;5.806;2023-05-10T06:55:26;15.40;99.90
62573;DHT22;48626;51.678;5.806;2023-05-10T06:57:51;15.40;99.90
62573;DHT22;48626;51.678;5.806;2023-05-10T07:00:18;15.40;99.90
62573;DHT22;48626;51.678;5.806;2023-05-10T07:02:44;15.40;99.90
62573;DHT22;48626;51.678;5.806;2023-05-10T07:05:10;15.40;99.90
62573;DHT22;48626;51.678;5.806;2023-05-10T07:07:37;15.40;99.90
62573;DHT22;48626;51.678;5.806;2023-05-10T07:10:02;15.40;99.90
62573;DHT22;48626;51.678;5.806;2023-05-10T07:12:28;15.40;99.90
62573;DHT22;48626;51.678;5.806;2023-05-10T07:14:54;15.40;99.90
62573;DHT22;48626;51.678;5.806;2023-05-10T07:17:19;15.30;99.90
62573;DHT22;48626;51.678;5.806;2023-05-10T07:19:45;15.40;99.90
62573;DHT22;48626;51.678;5.806;2023-05-10T07:22:11;15.40;99.90
62573;DHT22;48626;51.678;5.806;2023-05-10T07:24:37;15.40;99.90
62573;DHT22;48626;51.678;5.806;2023-05-10T07:27:03;15.40;99.90
62573;DHT22;48626;51.678;5.806;2023-05-10T07:29:29;15.40;99.90
62573;DHT22;48626;51.678;5.806;2023-05-10T07:31:55;15.30;99.90
62573;DHT22;48626;51.678;5.806;2023-05-10T07:34:21;15.30;99.90
62573;DHT22;48626;51.678;5.806;2023-05-10T07:36:46;15.40;99.90
62573;DHT22;48626;51.678;5.806;2023-05-10T07:39:12;15.40;99.90
62573;DHT22;48626;51.678;5.806;2023-05-10T07:41:38;15.50;99.90
62573;DHT22;48626;51.678;5.806;2023-05-10T07:44:06;15.50;99.90
62573;DHT22;48626;51.678;5.806;2023-05-10T07:46:32;15.50;99.90
62573;DHT22;48626;51.678;5.806;2023-05-10T07:48:57;15.50;99.90
62573;DHT22;48626;51.678;5.806;2023-05-10T07:51:23;15.50;99.90
62573;DHT22;48626;51.678;5.806;2023-05-10T07:53:49;15.50;99.90
62573;DHT22;48626;51.678;5.806;2023-05-10T07:58:46;15.50;99.90
62573;DHT22;48626;51.678;5.806;2023-05-10T08:01:12;15.50;99.90
62573;DHT22;48626;51.678;5.806;2023-05-10T08:03:37;15.60;99.90
62573;DHT22;48626;51.678;5.806;2023-05-10T08:06:03;15.60;99.90
62573;DHT22;48626;51.678;5.806;2023-05-10T08:08:29;15.70;99.90
62573;DHT22;48626;51.678;5.806;2023-05-10T08:10:55;15.80;99.90
62573;DHT22;48626;51.678;5.806;2023-05-10T08:13:21;15.80;99.90
62573;DHT22;48626;51.678;5.806;2023-05-10T08:15:46;15.80;99.90
62573;DHT22;48626;51.678;5.806;2023-05-10T08:18:12;15.90;99.90
62573;DHT22;48626;51.678;5.806;2023-05-10T08:20:38;15.90;99.90
62573;DHT22;48626;51.678;5.806;2023-05-10T08:23:04;16.00;99.90
62573;DHT22;48626;51.678;5.806;2023-05-10T08:25:29;16.20;99.90
62573;DHT22;48626;51.678;5.806;2023-05-10T08:27:55;16.30;99.90
62573;DHT22;48626;51.678;5.806;2023-05-10T08:30:21;16.30;99.90
62573;DHT22;48626;51.678;5.806;2023-05-10T08:32:46;16.50;99.90
62573;DHT22;48626;51.678;5.806;2023-05-10T08:35:12;16.50;99.90
62573;DHT22;48626;51.678;5.806;2023-05-10T08:37:38;16.40;99.90
62573;DHT22;48626;51.678;5.806;2023-05-10T08:40:04;16.50;99.90
62573;DHT22;48626;51.678;5.806;2023-05-10T08:42:30;16.60;99.90
62573;DHT22;48626;51.678;5.806;2023-05-10T08:45:00;16.60;99.90
62573;DHT22;48626;51.678;5.806;2023-05-10T08:47:26;16.70;99.90
62573;DHT22;48626;51.678;5.806;2023-05-10T08:49:52;16.60;99.90
62573;DHT22;48626;51.678;5.806;2023-05-10T08:52:18;16.70;99.90
62573;DHT22;48626;51.678;5.806;2023-05-10T08:54:44;16.80;99.90
62573;DHT22;48626;51.678;5.806;2023-05-10T08:57:10;16.80;99.90
62573;DHT22;48626;51.678;5.806;2023-05-10T08:59:36;16.80;99.90
62573;DHT22;48626;51.678;5.806;2023-05-10T09:02:05;16.90;99.90
62573;DHT22;48626;51.678;5.806;2023-05-10T09:04:31;17.00;99.90
62573;DHT22;48626;51.678;5.806;2023-05-10T09:06:57;17.00;99.90
62573;DHT22;48626;51.678;5.806;2023-05-10T09:09:24;17.00;99.90
62573;DHT22;48626;51.678;5.806;2023-05-10T09:11:51;17.10;99.90
62573;DHT22;48626;51.678;5.806;2023-05-10T09:14:18;17.10;99.90
62573;DHT22;48626;51.678;5.806;2023-05-10T09:16:45;17.20;99.90
62573;DHT22;48626;51.678;5.806;2023-05-10T09:19:10;17.20;99.90
62573;DHT22;48626;51.678;5.806;2023-05-10T09:21:36;17.10;99.90
62573;DHT22;48626;51.678;5.806;2023-05-10T09:24:06;17.00;99.90
62573;DHT22;48626;51.678;5.806;2023-05-10T09:26:32;17.00;99.90
62573;DHT22;48626;51.678;5.806;2023-05-10T09:28:59;16.90;99.90
62573;DHT22;48626;51.678;5.806;2023-05-10T09:31:47;17.00;99.90
62573;DHT22;48626;51.678;5.806;2023-05-10T09:34:29;17.10;99.90
62573;DHT22;48626;51.678;5.806;2023-05-10T09:36:57;17.10;99.90
62573;DHT22;48626;51.678;5.806;2023-05-10T09:39:33;17.10;99.90
62573;DHT22;48626;51.678;5.806;2023-05-10T09:42:01;17.00;99.90
62573;DHT22;48626;51.678;5.806;2023-05-10T09:44:29;16.90;99.90
62573;DHT22;48626;51.678;5.806;2023-05-10T09:46:55;16.80;99.90
62573;DHT22;48626;51.678;5.806;2023-05-10T09:49:21;16.70;99.90
62573;DHT22;48626;51.678;5.806;2023-05-10T09:51:57;16.70;99.90
62573;DHT22;48626;51.678;5.806;2023-05-10T09:54:24;16.70;99.90
62573;DHT22;48626;51.678;5.806;2023-05-10T09:56:50;16.60;99.90
62573;DHT22;48626;51.678;5.806;2023-05-10T09:59:16;16.60;99.90
62573;DHT22;48626;51.678;5.806;2023-05-10T10:01:42;16.60;99.90
62573;DHT22;48626;51.678;5.806;2023-05-10T10:04:14;16.70;99.90
62573;DHT22;48626;51.678;5.806;2023-05-10T10:06:40;16.70;99.90
62573;DHT22;48626;51.678;5.806;2023-05-10T10:09:07;16.80;99.90
62573;DHT22;48626;51.678;5.806;2023-05-10T10:11:37;16.80;99.90
62573;DHT22;48626;51.678;5.806;2023-05-10T10:14:04;16.80;99.90
62573;DHT22;48626;51.678;5.806;2023-05-10T10:16:31;17.00;99.90
62573;DHT22;48626;51.678;5.806;2023-05-10T10:18:57;17.20;99.90
62573;DHT22;48626;51.678;5.806;2023-05-10T10:21:24;17.40;99.90
62573;DHT22;48626;51.678;5.806;2023-05-10T10:23:50;17.50;99.90
62573;DHT22;48626;51.678;5.806;2023-05-10T10:26:17;17.50;99.90
62573;DHT22;48626;51.678;5.806;2023-05-10T10:31:47;17.60;99.90
62573;DHT22;48626;51.678;5.806;2023-05-10T10:34:33;17.70;99.90
62573;DHT22;48626;51.678;5.806;2023-05-10T10:37:04;17.70;99.90
62573;DHT22;48626;51.678;5.806;2023-05-10T10:39:30;17.60;99.90
62573;DHT22;48626;51.678;5.806;2023-05-10T10:41:57;17.60;99.90
62573;DHT22;48626;51.678;5.806;2023-05-10T10:49:42;17.30;99.90
62573;DHT22;48626;51.678;5.806;2023-05-10T10:52:39;17.20;99.90
62573;DHT22;48626;51.678;5.806;2023-05-10T10:57:53;16.80;99.90
62573;DHT22;48626;51.678;5.806;2023-05-10T11:00:26;16.70;99.90
62573;DHT22;48626;51.678;5.806;2023-05-10T11:03:14;16.50;99.90
62573;DHT22;48626;51.678;5.806;2023-05-10T11:05:47;16.60;99.90
62573;DHT22;48626;51.678;5.806;2023-05-10T11:08:32;16.60;99.90
62573;DHT22;48626;51.678;5.806;2023-05-10T11:13:45;16.70;99.90
62573;DHT22;48626;51.678;5.806;2023-05-10T11:19:12;16.70;99.90
62573;DHT22;48626;51.678;5.806;2023-05-10T11:21:48;16.90;99.90
62573;DHT22;48626;51.678;5.806;2023-05-10T11:24:17;17.00;99.90
62573;DHT22;48626;51.678;5.806;2023-05-10T11:26:43;17.10;99.90
62573;DHT22;48626;51.678;5.806;2023-05-10T11:29:08;17.40;99.90
62573;DHT22;48626;51.678;5.806;2023-05-10T11:31:34;17.50;99.90
62573;DHT22;48626;51.678;5.806;2023-05-10T11:34:01;17.80;99.90
62573;DHT22;48626;51.678;5.806;2023-05-10T11:36:28;18.00;99.90
62573;DHT22;48626;51.678;5.806;2023-05-10T11:38:55;18.20;99.90
62573;DHT22;48626;51.678;5.806;2023-05-10T11:41:23;18.40;99.90
62573;DHT22;48626;51.678;5.806;2023-05-10T11:43:50;18.70;99.90
62573;DHT22;48626;51.678;5.806;2023-05-10T11:46:19;18.90;99.90
62573;DHT22;48626;51.678;5.806;2023-05-10T11:48:48;18.90;99.90
62573;DHT22;48626;51.678;5.806;2023-05-10T11:51:14;18.80;99.90
62573;DHT22;48626;51.678;5.806;2023-05-10T11:53:40;18.70;99.90
62573;DHT22;48626;51.678;5.806;2023-05-10T11:56:08;18.50;99.90
62573;DHT22;48626;51.678;5.806;2023-05-10T11:58:35;18.40;99.90
62573;DHT22;48626;51.678;5.806;2023-05-10T12:01:01;18.30;99.90
62573;DHT22;48626;51.678;5.806;2023-05-10T12:03:27;18.30;99.90
62573;DHT22;48626;51.678;5.806;2023-05-10T12:05:54;18.30;99.90
62573;DHT22;48626;51.678;5.806;2023-05-10T12:08:23;18.30;99.90
62573;DHT22;48626;51.678;5.806;2023-05-10T12:10:48;18.50;99.90
62573;DHT22;48626;51.678;5.806;2023-05-10T12:13:14;18.80;99.90
62573;DHT22;48626;51.678;5.806;2023-05-10T12:15:41;19.00;99.90
62573;DHT22;48626;51.678;5.806;2023-05-10T12:18:11;19.20;99.90
62573;DHT22;48626;51.678;5.806;2023-05-10T12:20:37;19.30;99.90
62573;DHT22;48626;51.678;5.806;2023-05-10T12:23:03;19.20;99.90
62573;DHT22;48626;51.678;5.806;2023-05-10T12:25:36;19.10;99.90
62573;DHT22;48626;51.678;5.806;2023-05-10T12:28:04;18.90;99.90
62573;DHT22;48626;51.678;5.806;2023-05-10T12:30:32;18.70;99.90
62573;DHT22;48626;51.678;5.806;2023-05-10T12:33:13;18.40;99.90
62573;DHT22;48626;51.678;5.806;2023-05-10T12:35:50;18.20;99.90
62573;DHT22;48626;51.678;5.806;2023-05-10T12:38:45;18.10;99.90
62573;DHT22;48626;51.678;5.806;2023-05-10T12:41:16;18.10;99.90
62573;DHT22;48626;51.678;5.806;2023-05-10T12:43:41;18.20;99.90
62573;DHT22;48626;51.678;5.806;2023-05-10T12:46:09;18.30;99.90
62573;DHT22;48626;51.678;5.806;2023-05-10T12:48:35;18.50;99.90
62573;DHT22;48626;51.678;5.806;2023-05-10T12:51:02;18.60;99.90
62573;DHT22;48626;51.678;5.806;2023-05-10T12:53:28;18.60;99.90
62573;DHT22;48626;51.678;5.806;2023-05-10T12:55:53;18.70;99.90
62573;DHT22;48626;51.678;5.806;2023-05-10T12:58:19;18.70;99.90
62573;DHT22;48626;51.678;5.806;2023-05-10T13:00:45;18.80;99.90
62573;DHT22;48626;51.678;5.806;2023-05-10T13:03:11;18.70;99.90
62573;DHT22;48626;51.678;5.806;2023-05-10T13:05:37;18.70;99.90
62573;DHT22;48626;51.678;5.806;2023-05-10T13:08:03;18.80;99.90
62573;DHT22;48626;51.678;5.806;2023-05-10T13:10:30;18.70;99.90
62573;DHT22;48626;51.678;5.806;2023-05-10T13:12:56;18.60;99.90
62573;DHT22;48626;51.678;5.806;2023-05-10T13:15:22;18.60;99.90
62573;DHT22;48626;51.678;5.806;2023-05-10T13:17:48;18.50;99.90
62573;DHT22;48626;51.678;5.806;2023-05-10T13:20:14;18.40;99.90
62573;DHT22;48626;51.678;5.806;2023-05-10T13:22:41;18.30;99.90
62573;DHT22;48626;51.678;5.806;2023-05-10T13:25:07;18.30;99.90
62573;DHT22;48626;51.678;5.806;2023-05-10T13:27:33;18.20;99.90
62573;DHT22;48626;51.678;5.806;2023-05-10T13:29:59;18.30;99.90
62573;DHT22;48626;51.678;5.806;2023-05-10T13:32:25;18.30;99.90
62573;DHT22;48626;51.678;5.806;2023-05-10T13:34:51;18.30;99.90
62573;DHT22;48626;51.678;5.806;2023-05-10T13:37:17;18.20;99.90
62573;DHT22;48626;51.678;5.806;2023-05-10T13:39:42;18.20;99.90
62573;DHT22;48626;51.678;5.806;2023-05-10T13:42:08;18.30;99.90
62573;DHT22;48626;51.678;5.806;2023-05-10T13:44:34;18.30;99.90
62573;DHT22;48626;51.678;5.806;2023-05-10T13:47:00;18.30;99.90
62573;DHT22;48626;51.678;5.806;2023-05-10T13:49:25;18.30;99.90
62573;DHT22;48626;51.678;5.806;2023-05-10T13:51:51;18.20;99.90
62573;DHT22;48626;51.678;5.806;2023-05-10T13:54:17;18.20;99.90
62573;DHT22;48626;51.678;5.806;2023-05-10T13:56:45;18.20;99.90
62573;DHT22;48626;51.678;5.806;2023-05-10T13:59:12;18.20;99.90
62573;DHT22;48626;51.678;5.806;2023-05-10T14:01:40;18.10;99.90
62573;DHT22;48626;51.678;5.806;2023-05-10T14:04:05;18.20;99.90
62573;DHT22;48626;51.678;5.806;2023-05-10T14:06:32;18.50;99.90
62573;DHT22;48626;51.678;5.806;2023-05-10T14:08:59;18.80;99.90
62573;DHT22;48626;51.678;5.806;2023-05-10T14:11:24;19.10;99.90
62573;DHT22;48626;51.678;5.806;2023-05-10T14:13:50;19.20;99.90
62573;DHT22;48626;51.678;5.806;2023-05-10T14:16:16;19.70;99.90
62573;DHT22;48626;51.678;5.806;2023-05-10T14:18:41;20.60;99.90
62573;DHT22;48626;51.678;5.806;2023-05-10T14:21:07;21.00;99.90
62573;DHT22;48626;51.678;5.806;2023-05-10T14:23:33;21.50;99.90
62573;DHT22;48626;51.678;5.806;2023-05-10T14:25:58;21.80;99.90
62573;DHT22;48626;51.678;5.806;2023-05-10T14:28:24;22.70;99.90
62573;DHT22;48626;51.678;5.806;2023-05-10T14:30:50;24.50;99.90
62573;DHT22;48626;51.678;5.806;2023-05-10T14:33:16;26.30;99.90
62573;DHT22;48626;51.678;5.806;2023-05-10T14:35:42;27.40;99.90
62573;DHT22;48626;51.678;5.806;2023-05-10T14:38:08;28.50;99.90
62573;DHT22;48626;51.678;5.806;2023-05-10T14:40:34;28.40;99.90
62573;DHT22;48626;51.678;5.806;2023-05-10T14:43:00;27.60;99.90
62573;DHT22;48626;51.678;5.806;2023-05-10T14:45:25;27.40;99.90
62573;DHT22;48626;51.678;5.806;2023-05-10T14:47:51;26.90;99.90
62573;DHT22;48626;51.678;5.806;2023-05-10T14:50:17;26.80;99.90
62573;DHT22;48626;51.678;5.806;2023-05-10T14:52:43;26.70;99.90
62573;DHT22;48626;51.678;5.806;2023-05-10T14:55:09;26.20;99.90
62573;DHT22;48626;51.678;5.806;2023-05-10T14:57:35;25.40;99.90
62573;DHT22;48626;51.678;5.806;2023-05-10T15:00:01;25.00;99.90
62573;DHT22;48626;51.678;5.806;2023-05-10T15:02:27;24.30;99.90
62573;DHT22;48626;51.678;5.806;2023-05-10T15:04:53;23.80;99.90
62573;DHT22;48626;51.678;5.806;2023-05-10T15:07:19;23.40;99.90
62573;DHT22;48626;51.678;5.806;2023-05-10T15:09:45;23.10;99.90
62573;DHT22;48626;51.678;5.806;2023-05-10T15:12:11;22.80;99.90
62573;DHT22;48626;51.678;5.806;2023-05-10T15:14:37;22.30;99.90
62573;DHT22;48626;51.678;5.806;2023-05-10T15:17:02;22.00;99.90
62573;DHT22;48626;51.678;5.806;2023-05-10T15:19:28;22.10;99.90
62573;DHT22;48626;51.678;5.806;2023-05-10T15:21:55;23.00;99.90
62573;DHT22;48626;51.678;5.806;2023-05-10T15:24:26;23.20;99.90
62573;DHT22;48626;51.678;5.806;2023-05-10T15:26:52;22.70;99.90
62573;DHT22;48626;51.678;5.806;2023-05-10T15:29:18;22.10;99.90
62573;DHT22;48626;51.678;5.806;2023-05-10T15:31:49;21.60;99.90
62573;DHT22;48626;51.678;5.806;2023-05-10T15:34:16;21.10;99.90
62573;DHT22;48626;51.678;5.806;2023-05-10T15:36:42;20.50;99.90
62573;DHT22;48626;51.678;5.806;2023-05-10T15:39:08;20.20;99.90
62573;DHT22;48626;51.678;5.806;2023-05-10T15:41:35;20.00;99.90
62573;DHT22;48626;51.678;5.806;2023-05-10T15:44:01;19.80;99.90
62573;DHT22;48626;51.678;5.806;2023-05-10T15:46:28;19.60;99.90
62573;DHT22;48626;51.678;5.806;2023-05-10T15:48:54;19.40;99.90
62573;DHT22;48626;51.678;5.806;2023-05-10T15:51:19;19.30;99.90
62573;DHT22;48626;51.678;5.806;2023-05-10T15:53:45;19.20;99.90
62573;DHT22;48626;51.678;5.806;2023-05-10T15:56:11;19.10;99.90
62573;DHT22;48626;51.678;5.806;2023-05-10T15:58:38;19.00;99.90
62573;DHT22;48626;51.678;5.806;2023-05-10T16:01:04;18.90;99.90
62573;DHT22;48626;51.678;5.806;2023-05-10T16:03:33;18.80;99.90
62573;DHT22;48626;51.678;5.806;2023-05-10T16:05:59;18.70;99.90
62573;DHT22;48626;51.678;5.806;2023-05-10T16:08:25;18.70;99.90
62573;DHT22;48626;51.678;5.806;2023-05-10T16:10:51;18.70;99.90